Accueil
METAR-TAF:

METAR-TAF

Aéroports :

Agen, France

Aéroport Agen-La Garenne

latitude: 44-11N, longitude: 000-36E, altitude: 61 m

Observation

Le bulletin a été fait il y a 32 minutes, à 23:30 UTC
Vent 4 kt de est
Température 19°C
Humidité 68%
Pression 1014 hPa
Visibilité 10 km ou plus
pas de nuages en-dessous de 1500 mètres et pas de cumulonimbus.

METAR: LFBA 282330Z AUTO 10004KT CAVOK 19/13 Q1014

Heure: 02:02 (00:02 UTC)

Prévision

Le bulletin a été fait il y a 10 heures et 2 minutes, à 14:00 UTC
Prévision valable du 28 à 15 UTC au 28 à 24 UTC
Vent 8 kt de est/sud-est
Visibilité 10 km ou plus
pas de nuages en-dessous de 1500 mètres et pas de cumulonimbus.

TAF: LFBA 281400Z 2815/2824 12008KT CAVOK

Observations et prévisions météorologiques de plus de 4000 aéroports (messages METAR et TAF).

Les stations disponibles sont représentées par des disques jaunes et rouges sur la carte.

Passer la souris dessus pour voir le nom de la station.

Cliquer dessus pour voir les observations et prévisions météorologiques.

Pour changer de carte: cliquez sur les boutons verts avec une croix noire pour zoomer, sur le bouton vert avec un tiret pour effectuer un zoom arrière, ou sur les flèches vertes pour les cartes adjacentes.


METAR-TAF: